Sligo Airport - TAF
(Terminal Area Forecast)


Issued at 11:36 UTC on Sun. 29-Jan-23


--- METARS(SA) ---
METAR EISG(SLIGO) 291100Z 23010KT 6000 FEW020 OVC050 10/07 Q1023 =


--- TAFS() ---
TAF EISG(SLIGO) 291100Z 2912/2921 25012KT 9999 FEW015 BKN040 PROB30
TEMPO 2912/2921 27015G25KT TEMPO 2913/2918 4000 -RADZ BKN009 BECMG
2916/2918 29015KT =


--- SIGMETS(WS) ---
IE - No VALID SIGMETS/Warnings FOR THIS AREA

--- SIGMETS Volcanic(WV) ---
IE - No VALID SIGMETS/Warnings FOR THIS AREA

--- SIGMETS(WS) ---
EGPX SIGMET 04 VALID 290700/291100 EGRR- EGPX
SCOTTISH FIR SEV TURB FCST NW OF LINE N5705 W01000 - N5801
W00600 - N5900 E00140 SFC/FL060 MOV SE 15KT NC=
EGPX SIGMET 05 VALID 290810/291210 EGRR- EGPX
SCOTTISH FIR SEV MTW FCST WI N5614 W00542 - N5837 W00513 - N5835
W00305 - N5728 W00142 - N5501 W00120 - N5500 W00120 - N5500
W00412 - N5614 W00542 FL060/270 STNR NC=
EGPX SIGMET 06 VALID 291100/291500 EGRR- EGPX
SCOTTISH FIR SEV TURB FCST NW OF LINE N5650 W01000 - N5732
W00431 - N5941 E00032 SFC/FL060 MOV SE 15KT NC=
EGTT SIGMET 03 VALID 290810/291210 EGRR- EGTT
LONDON FIR SEV MTW FCST WI N5336 W00054 - N5339 W00233 - N5500
W00412 - N5500 W00120 - N5336 W00054 FL060/270 STNR NC=

Sligo Airport - METARs

Latest METARs for Sligo and Donegal Airports - updated every 30 mins